Time;durP1;ratioP1;P1;durP2;ratioP2;P2;SDS_P1;SDS_P2;PMS_P1;PMS_P2;Temp;Humidity;BMP_temperature;BMP_pressure;BME280_temperature;BME280_humidity;BME280_pressure;Samples;Min_cycle;Max_cycle;Signal;HPM_P1;HPM_P2
2022/04/19 00:01:11;;;;;;;1.73;1.27;;;6.80;78.30;;;;;;4198516;28;20693;-76
2022/04/19 00:03:14;;;;;;;2.33;1.63;;;6.80;78.60;;;;;;4199499;28;20056;-75
2022/04/19 00:05:17;;;;;;;1.75;1.60;;;6.70;78.80;;;;;;4183649;28;20127;-74
2022/04/19 00:07:18;;;;;;;2.10;1.70;;;6.70;79.00;;;;;;4185412;28;20089;-76
2022/04/19 00:09:20;;;;;;;2.55;2.20;;;6.60;79.80;;;;;;4183749;28;20860;-76
2022/04/19 00:11:22;;;;;;;1.65;1.55;;;6.50;80.10;;;;;;4198203;28;20061;-76
2022/04/19 00:13:24;;;;;;;3.38;1.40;;;6.50;80.50;;;;;;4183272;28;20057;-75
2022/04/19 00:15:28;;;;;;;1.98;1.77;;;6.40;80.70;;;;;;4189315;28;20152;-76
2022/04/19 00:17:30;;;;;;;1.60;1.50;;;6.40;80.70;;;;;;4191122;28;20057;-75
2022/04/19 00:19:32;;;;;;;3.95;1.63;;;6.50;80.40;;;;;;4199630;28;20057;-75
2022/04/19 00:21:34;;;;;;;2.42;1.40;;;6.60;80.20;;;;;;4196965;28;20053;-76
2022/04/19 00:23:35;;;;;;;1.90;1.67;;;6.60;80.00;;;;;;4199892;28;20151;-75
2022/04/19 00:25:37;;;;;;;2.10;1.90;;;6.70;79.90;;;;;;4196449;28;20068;-75
2022/04/19 00:27:39;;;;;;;1.77;1.48;;;6.60;79.70;;;;;;4179371;28;20112;-76
2022/04/19 00:29:41;;;;;;;1.50;1.40;;;6.70;79.70;;;;;;4200603;28;20057;-75
2022/04/19 00:31:43;;;;;;;3.17;1.58;;;6.60;79.80;;;;;;4181684;28;20064;-75
2022/04/19 00:33:45;;;;;;;2.58;1.65;;;6.60;80.00;;;;;;4181828;28;20072;-74
2022/04/19 00:35:47;;;;;;;1.13;1.08;;;6.50;80.30;;;;;;4198458;28;20069;-75
2022/04/19 00:37:49;;;;;;;2.20;1.55;;;6.50;80.60;;;;;;4192525;28;20616;-75
2022/04/19 00:39:52;;;;;;;2.63;1.75;;;6.50;80.70;;;;;;4181214;28;20831;-75
2022/04/19 00:41:55;;;;;;;1.70;1.60;;;6.40;80.90;;;;;;4195847;28;20084;-75
2022/04/19 00:43:57;;;;;;;1.92;1.67;;;6.40;80.80;;;;;;4195656;28;20064;-75
2022/04/19 00:45:59;;;;;;;1.30;1.20;;;6.50;80.80;;;;;;4192981;28;20099;-75
2022/04/19 00:48:02;;;;;;;1.83;1.58;;;6.50;80.80;;;;;;4196996;28;20057;-75
2022/04/19 00:50:05;;;;;;;2.00;1.80;;;6.50;80.60;;;;;;4193195;28;20053;-74
2022/04/19 00:52:08;;;;;;;2.08;1.42;;;6.60;80.30;;;;;;4177921;28;20057;-75
2022/04/19 00:54:12;;;;;;;2.75;1.60;;;6.50;80.40;;;;;;4199152;28;20080;-74
2022/04/19 00:56:14;;;;;;;1.40;1.30;;;6.50;80.40;;;;;;4192714;28;20494;-73
2022/04/19 00:58:16;;;;;;;2.58;1.50;;;6.50;80.30;;;;;;4189582;28;20061;-74
2022/04/19 01:00:20;;;;;;;2.00;1.80;;;6.50;80.10;;;;;;4198982;28;20060;-74
2022/04/19 01:02:23;;;;;;;2.35;1.40;;;6.50;80.40;;;;;;4181476;28;20054;-75
2022/04/19 01:04:25;;;;;;;2.42;2.00;;;6.40;80.70;;;;;;4186844;28;20075;-75
2022/04/19 01:06:27;;;;;;;4.50;2.88;;;6.30;80.90;;;;;;4181447;28;20113;-75
2022/04/19 01:08:30;;;;;;;2.85;2.47;;;6.30;81.10;;;;;;4176706;28;20058;-74
2022/04/19 01:10:31;;;;;;;3.25;1.95;;;6.20;81.30;;;;;;4195574;28;20919;-75
2022/04/19 01:14:56;;;;;;;2.20;2.00;;;6.10;82.00;;;;;;4195693;28;20131;-75
2022/04/19 01:16:57;;;;;;;3.60;2.30;;;6.10;82.10;;;;;;4177872;28;20061;-75
2022/04/19 01:19:01;;;;;;;6.38;3.38;;;6.10;82.20;;;;;;4199099;28;20057;-75
2022/04/19 01:21:04;;;;;;;3.78;2.60;;;6.10;82.20;;;;;;4180537;28;20105;-75
2022/04/19 01:23:06;;;;;;;4.07;2.15;;;6.10;82.20;;;;;;4180454;28;20084;-75
2022/04/19 01:25:10;;;;;;;3.17;2.30;;;6.10;82.10;;;;;;4180813;28;20061;-75
2022/04/19 01:27:15;;;;;;;3.58;3.15;;;6.20;81.70;;;;;;4182915;28;20064;-75
2022/04/19 01:29:17;;;;;;;5.50;4.97;;;6.20;81.40;;;;;;4182377;28;20064;-75
2022/04/19 01:31:19;;;;;;;5.13;3.90;;;6.20;81.50;;;;;;4177294;28;20068;-75
2022/04/19 01:33:23;;;;;;;4.75;3.10;;;6.20;81.40;;;;;;4180907;28;20064;-74
2022/04/19 01:35:25;;;;;;;4.28;3.47;;;6.20;81.10;;;;;;4180804;28;20057;-74
2022/04/19 01:37:26;;;;;;;19.10;13.07;;;6.20;80.80;;;;;;4196897;28;20669;-74
2022/04/19 01:41:48;;;;;;;18.60;12.50;;;6.30;80.60;;;;;;4198264;28;20160;-76
2022/04/19 01:43:51;;;;;;;8.32;6.32;;;6.20;80.80;;;;;;4171378;28;20867;-74
2022/04/19 01:45:54;;;;;;;5.70;5.07;;;6.00;81.20;;;;;;4196539;28;20118;-74
2022/04/19 01:47:57;;;;;;;4.75;4.35;;;6.00;81.60;;;;;;4195243;28;20151;-74
2022/04/19 01:49:59;;;;;;;3.92;2.70;;;5.90;81.70;;;;;;4183114;28;20097;-76
2022/04/19 01:52:02;;;;;;;2.97;2.78;;;5.90;81.90;;;;;;4183816;28;20049;-75
2022/04/19 01:54:04;;;;;;;4.70;4.07;;;5.80;82.20;;;;;;4182602;28;20130;-77
2022/04/19 01:56:07;;;;;;;4.30;3.90;;;5.80;82.10;;;;;;4200020;28;20775;-76
2022/04/19 01:58:09;;;;;;;4.80;3.60;;;5.80;82.30;;;;;;4181759;28;20171;-76
2022/04/19 02:00:13;;;;;;;7.63;3.10;;;5.80;82.20;;;;;;4199179;28;20068;-75
2022/04/19 02:02:15;;;;;;;2.78;2.55;;;5.90;82.40;;;;;;4181977;28;20160;-76
2022/04/19 02:04:21;;;;;;;3.78;2.00;;;5.90;81.90;;;;;;4193029;28;20143;-77
2022/04/19 02:06:23;;;;;;;3.13;2.25;;;5.90;81.80;;;;;;4195003;28;20662;-77
2022/04/19 02:08:24;;;;;;;4.93;3.75;;;5.90;81.60;;;;;;4198930;28;20875;-77
2022/04/19 02:10:26;;;;;;;21.40;11.18;;;6.00;81.30;;;;;;4180325;28;20057;-76
2022/04/19 02:12:28;;;;;;;16.95;8.88;;;6.00;81.10;;;;;;4193056;28;20971;-76
2022/04/19 02:14:30;;;;;;;10.50;5.78;;;5.90;81.50;;;;;;4180887;28;20062;-77
2022/04/19 02:16:32;;;;;;;8.50;5.85;;;5.90;81.70;;;;;;4195590;28;20096;-77
2022/04/19 02:18:33;;;;;;;2.65;2.40;;;5.80;81.70;;;;;;4192618;28;20088;-76
2022/04/19 02:20:35;;;;;;;2.55;2.15;;;5.70;82.20;;;;;;4180688;28;20947;-76
2022/04/19 02:22:39;;;;;;;10.20;6.35;;;5.60;82.80;;;;;;4194685;28;20057;-76
2022/04/19 02:24:41;;;;;;;11.35;7.60;;;5.50;83.00;;;;;;4199708;28;20123;-76
2022/04/19 02:26:43;;;;;;;4.53;3.92;;;5.50;83.30;;;;;;4182628;28;20096;-76
2022/04/19 02:28:45;;;;;;;12.23;6.43;;;5.50;83.30;;;;;;4181422;28;21043;-76
2022/04/19 02:30:47;;;;;;;8.00;5.30;;;5.50;83.40;;;;;;4191106;28;20068;-76
2022/04/19 02:32:50;;;;;;;3.85;2.83;;;5.40;83.60;;;;;;4196456;28;20064;-79
2022/04/19 02:34:53;;;;;;;4.65;2.28;;;5.40;84.00;;;;;;4177454;28;20073;-76
2022/04/19 02:36:55;;;;;;;6.13;2.80;;;5.40;83.90;;;;;;4186839;28;20053;-74
2022/04/19 02:38:59;;;;;;;5.38;2.95;;;5.40;83.80;;;;;;4192082;28;20886;-76
2022/04/19 02:41:01;;;;;;;3.10;2.80;;;5.50;83.70;;;;;;4190104;28;20899;-77
2022/04/19 02:43:03;;;;;;;4.45;3.25;;;5.50;83.60;;;;;;4180850;28;20069;-76
2022/04/19 02:45:05;;;;;;;6.57;4.32;;;5.50;83.60;;;;;;4182937;28;20054;-77
2022/04/19 02:47:07;;;;;;;5.85;3.65;;;5.50;83.70;;;;;;4179772;28;20157;-76
2022/04/19 02:49:09;;;;;;;5.80;3.28;;;5.50;83.70;;;;;;4200205;28;20884;-76
2022/04/19 02:51:10;;;;;;;4.85;3.60;;;5.40;83.80;;;;;;4181686;28;20050;-76
2022/04/19 02:53:12;;;;;;;3.80;3.40;;;5.50;83.90;;;;;;4191400;28;20061;-77
2022/04/19 02:55:14;;;;;;;5.18;4.07;;;5.40;84.10;;;;;;4186381;28;20151;-76
2022/04/19 02:57:18;;;;;;;5.88;4.53;;;5.30;84.40;;;;;;4189005;28;20148;-76
2022/04/19 02:59:20;;;;;;;5.75;4.20;;;5.30;84.60;;;;;;4184341;28;20053;-76
2022/04/19 03:01:22;;;;;;;5.22;4.22;;;5.40;84.50;;;;;;4197893;28;20037;-76
2022/04/19 03:03:23;;;;;;;7.82;5.72;;;5.40;84.30;;;;;;4194998;28;20061;-76
2022/04/19 03:05:26;;;;;;;7.60;5.65;;;5.40;84.40;;;;;;4200582;28;20084;-77
2022/04/19 03:07:27;;;;;;;5.57;4.90;;;5.40;84.20;;;;;;4183389;28;20189;-75
2022/04/19 03:09:29;;;;;;;8.75;4.95;;;5.40;84.20;;;;;;4183383;28;20168;-75
2022/04/19 03:11:32;;;;;;;7.72;5.63;;;5.40;84.10;;;;;;4200746;28;20064;-76
2022/04/19 03:13:35;;;;;;;6.15;4.53;;;5.40;84.40;;;;;;4200859;28;20084;-76
2022/04/19 03:15:37;;;;;;;7.97;5.43;;;5.40;84.40;;;;;;4183217;28;21205;-76
2022/04/19 03:17:40;;;;;;;9.90;5.03;;;5.50;84.30;;;;;;4200749;28;20771;-76
2022/04/19 03:19:42;;;;;;;6.55;4.72;;;5.50;84.40;;;;;;4201097;28;20822;-75
2022/04/19 03:21:44;;;;;;;7.38;4.18;;;5.40;84.60;;;;;;4187577;28;20049;-76
2022/04/19 03:28:26;;;;;;;6.15;3.60;;;5.20;85.20;;;;;;4200403;28;20064;-76
2022/04/19 03:30:29;;;;;;;4.97;3.92;;;5.10;85.60;;;;;;4182668;28;20053;-76
2022/04/19 03:32:30;;;;;;;5.00;3.42;;;5.10;85.90;;;;;;4182202;28;20061;-76
2022/04/19 03:34:32;;;;;;;4.45;3.67;;;5.10;86.10;;;;;;4200591;28;20148;-76
2022/04/19 03:36:35;;;;;;;4.35;3.13;;;5.00;86.10;;;;;;4176771;28;20064;-76
2022/04/19 03:38:36;;;;;;;3.25;2.35;;;5.00;86.40;;;;;;4202819;28;20061;-76
2022/04/19 03:40:38;;;;;;;4.13;3.72;;;5.00;86.40;;;;;;4186077;28;20058;-75
2022/04/19 03:42:41;;;;;;;4.15;3.47;;;5.00;86.20;;;;;;4195147;28;20049;-77
2022/04/19 03:44:43;;;;;;;5.30;3.33;;;5.10;85.90;;;;;;4200689;28;20219;-76
2022/04/19 03:49:06;;;;;;;3.17;2.60;;;5.20;85.50;;;;;;4199398;28;20103;-75
2022/04/19 03:51:08;;;;;;;3.22;2.65;;;5.20;85.50;;;;;;4200573;28;20664;-76
2022/04/19 03:53:10;;;;;;;16.40;7.45;;;5.20;87.50;;;;;;4198027;28;20065;-76
2022/04/19 03:55:11;;;;;;;9.13;5.13;;;5.10;86.30;;;;;;4193617;28;20117;-76
2022/04/19 03:57:13;;;;;;;19.70;10.35;;;5.10;86.60;;;;;;4190146;28;20666;-76
2022/04/19 03:59:15;;;;;;;13.80;8.18;;;5.00;86.50;;;;;;4180872;28;20061;-75
2022/04/19 04:01:16;;;;;;;11.32;7.22;;;4.90;87.20;;;;;;4178163;28;20115;-76
2022/04/19 04:03:18;;;;;;;8.30;5.78;;;4.90;89.60;;;;;;4191571;28;20127;-76
2022/04/19 04:05:21;;;;;;;4.65;4.25;;;4.80;88.40;;;;;;4199659;28;20294;-76
2022/04/19 04:07:27;;;;;;;6.30;4.55;;;4.80;88.90;;;;;;4187928;28;20059;-76
2022/04/19 04:09:32;;;;;;;9.88;3.80;;;4.80;89.50;;;;;;4202272;28;20068;-76
2022/04/19 04:11:34;;;;;;;5.40;4.50;;;4.80;88.70;;;;;;4199219;28;20756;-76
2022/04/19 04:13:36;;;;;;;7.07;4.00;;;4.80;88.70;;;;;;4194338;28;20971;-76
2022/04/19 04:15:38;;;;;;;3.63;3.22;;;4.80;88.80;;;;;;4198848;28;20053;-76
2022/04/19 04:17:40;;;;;;;5.05;3.20;;;4.80;88.80;;;;;;4201452;28;20099;-76
2022/04/19 04:19:43;;;;;;;3.83;3.13;;;4.70;88.30;;;;;;4201578;28;20779;-75
2022/04/19 04:21:45;;;;;;;12.30;3.17;;;4.70;88.50;;;;;;4193904;28;20123;-76
2022/04/19 04:23:46;;;;;;;6.30;3.55;;;4.70;88.60;;;;;;4206050;28;20068;-76
2022/04/19 04:25:48;;;;;;;4.45;3.28;;;4.70;89.60;;;;;;4203638;28;20060;-76
2022/04/19 04:27:50;;;;;;;6.28;4.43;;;4.60;89.20;;;;;;4182123;28;20053;-77
2022/04/19 04:29:51;;;;;;;4.45;3.97;;;4.60;90.00;;;;;;4199745;28;20123;-75
2022/04/19 04:31:53;;;;;;;4.00;3.55;;;4.60;90.00;;;;;;4181851;28;20077;-77
2022/04/19 04:33:55;;;;;;;8.48;4.03;;;4.60;90.30;;;;;;4206614;28;20053;-76
2022/04/19 04:35:58;;;;;;;11.18;8.50;;;4.60;89.90;;;;;;4194063;28;20800;-76
2022/04/19 04:38:00;;;;;;;18.05;10.65;;;4.60;89.20;;;;;;4197292;28;20479;-76
2022/04/19 04:40:03;;;;;;;5.78;5.25;;;4.70;88.80;;;;;;4182571;28;20134;-76
2022/04/19 04:42:05;;;;;;;5.47;4.35;;;4.70;88.60;;;;;;4191145;28;20079;-77
2022/04/19 04:44:06;;;;;;;6.22;4.90;;;4.70;88.80;;;;;;4183545;28;20167;-76
2022/04/19 04:50:49;;;;;;;3.92;3.13;;;4.80;88.60;;;;;;4196850;28;20054;-76
2022/04/19 04:52:52;;;;;;;3.70;3.10;;;4.90;88.30;;;;;;4199418;28;20107;-76
2022/04/19 04:54:54;;;;;;;5.78;3.50;;;4.90;88.10;;;;;;4183672;28;20100;-76
2022/04/19 04:56:56;;;;;;;4.75;3.53;;;4.90;88.30;;;;;;4182756;28;20879;-76
2022/04/19 04:58:57;;;;;;;3.17;2.78;;;4.90;88.10;;;;;;4178120;28;20062;-76
2022/04/19 05:00:59;;;;;;;2.97;2.78;;;4.80;88.60;;;;;;4175487;28;21213;-76
2022/04/19 05:03:01;;;;;;;3.80;2.75;;;4.80;89.10;;;;;;4181306;28;20128;-76
2022/04/19 05:05:03;;;;;;;3.42;2.22;;;4.70;89.20;;;;;;4187353;28;20107;-75
2022/04/19 05:07:05;;;;;;;3.78;2.83;;;4.80;89.40;;;;;;4181050;28;20144;-76
2022/04/19 05:09:07;;;;;;;3.50;2.85;;;4.80;89.20;;;;;;4181108;28;20096;-75
2022/04/19 05:11:09;;;;;;;4.07;2.35;;;4.80;90.00;;;;;;4197417;28;20056;-76
2022/04/19 05:13:11;;;;;;;4.38;2.85;;;4.80;89.40;;;;;;4180973;28;20108;-76
2022/04/19 05:15:13;;;;;;;3.15;2.63;;;4.80;89.20;;;;;;4181423;28;20060;-76
2022/04/19 05:17:14;;;;;;;3.63;2.60;;;5.00;89.60;;;;;;4181952;28;20123;-76
2022/04/19 05:19:16;;;;;;;3.15;2.75;;;5.00;89.30;;;;;;4194195;28;20092;-76
2022/04/19 05:21:20;;;;;;;6.45;2.50;;;5.10;88.70;;;;;;4191229;28;20064;-76
2022/04/19 05:23:21;;;;;;;9.05;2.50;;;5.20;88.70;;;;;;4180841;28;20926;-75
2022/04/19 05:25:23;;;;;;;5.78;2.72;;;5.30;88.40;;;;;;4199283;28;20956;-75
2022/04/19 05:27:25;;;;;;;5.25;2.88;;;5.40;88.10;;;;;;4181772;28;20061;-76
2022/04/19 05:29:26;;;;;;;3.25;2.75;;;5.40;88.20;;;;;;4184090;28;20102;-76
2022/04/19 05:31:28;;;;;;;6.45;2.65;;;5.50;88.80;;;;;;4180245;28;20053;-76
2022/04/19 05:33:30;;;;;;;4.85;2.90;;;5.60;87.70;;;;;;4181180;28;20104;-76
2022/04/19 05:35:32;;;;;;;7.07;3.38;;;5.90;87.20;;;;;;4181378;28;20117;-76
2022/04/19 05:37:37;;;;;;;5.03;2.75;;;6.10;86.20;;;;;;4200418;28;20093;-76
2022/04/19 05:39:39;;;;;;;4.95;3.03;;;6.20;86.20;;;;;;4184427;28;20124;-77
2022/04/19 05:41:41;;;;;;;2.95;2.42;;;6.30;86.60;;;;;;4182988;28;20816;-76
2022/04/19 05:43:42;;;;;;;6.50;3.05;;;6.30;86.40;;;;;;4194786;28;20131;-76
2022/04/19 05:45:46;;;;;;;3.45;2.47;;;6.40;86.10;;;;;;4200035;28;20107;-76
2022/04/19 05:47:48;;;;;;;5.15;3.17;;;6.60;85.80;;;;;;4183202;28;20069;-75
2022/04/19 05:49:51;;;;;;;5.43;3.13;;;6.60;84.80;;;;;;4198006;28;20056;-76
2022/04/19 05:51:54;;;;;;;5.05;3.83;;;6.70;84.50;;;;;;4179108;28;20057;-76
2022/04/19 05:53:56;;;;;;;14.02;3.53;;;6.80;83.70;;;;;;4185034;28;20057;-76
2022/04/19 05:55:57;;;;;;;4.57;2.75;;;6.90;82.40;;;;;;4205669;28;20084;-76
2022/04/19 05:57:59;;;;;;;6.65;3.15;;;7.10;83.00;;;;;;4182515;28;20088;-76
2022/04/19 06:00:01;;;;;;;7.68;3.35;;;7.30;82.70;;;;;;4197829;28;20057;-76
2022/04/19 06:06:44;;;;;;;5.00;3.03;;;7.80;80.80;;;;;;4202813;28;20139;-75
2022/04/19 06:08:46;;;;;;;3.25;2.85;;;7.90;79.90;;;;;;4193874;28;20863;-76
2022/04/19 06:10:49;;;;;;;11.88;4.97;;;8.10;79.60;;;;;;4202436;28;20065;-75
2022/04/19 06:12:51;;;;;;;5.22;3.03;;;8.10;78.60;;;;;;4190812;28;20061;-75
2022/04/19 06:14:53;;;;;;;5.07;3.53;;;8.20;77.80;;;;;;4189233;28;20884;-76
2022/04/19 06:16:55;;;;;;;5.95;3.28;;;8.30;77.40;;;;;;4193913;28;20048;-76
2022/04/19 06:18:57;;;;;;;6.75;3.13;;;8.40;78.00;;;;;;4196992;28;20888;-76
2022/04/19 06:20:59;;;;;;;6.78;2.90;;;8.60;77.00;;;;;;4191823;28;20049;-76
2022/04/19 06:23:01;;;;;;;7.28;3.15;;;8.70;76.70;;;;;;4190733;28;20050;-76
2022/04/19 06:25:03;;;;;;;4.47;3.17;;;8.70;76.70;;;;;;4200852;28;20091;-75
2022/04/19 06:27:08;;;;;;;3.58;3.25;;;8.80;76.90;;;;;;4183138;28;20220;-75
2022/04/19 06:29:10;;;;;;;9.52;3.47;;;8.90;76.80;;;;;;4200552;28;20049;-76
2022/04/19 06:31:11;;;;;;;8.27;3.92;;;9.10;76.30;;;;;;4184724;28;20140;-76
2022/04/19 06:33:14;;;;;;;5.22;3.33;;;9.20;76.20;;;;;;4187497;28;20064;-76
2022/04/19 06:35:15;;;;;;;5.30;3.22;;;9.30;75.80;;;;;;4181864;28;20131;-76
2022/04/19 06:37:17;;;;;;;5.93;3.75;;;9.40;73.40;;;;;;4200259;28;20623;-76
2022/04/19 06:39:20;;;;;;;7.55;3.50;;;9.50;74.50;;;;;;4187860;28;20171;-76
2022/04/19 06:41:21;;;;;;;3.55;3.13;;;9.60;74.90;;;;;;4196066;28;20068;-77
2022/04/19 06:43:23;;;;;;;8.65;3.05;;;9.60;74.70;;;;;;4184226;28;20097;-76
2022/04/19 06:45:25;;;;;;;5.32;3.53;;;9.70;74.80;;;;;;4189222;28;20068;-77
2022/04/19 06:47:27;;;;;;;4.90;3.05;;;9.70;73.90;;;;;;4179598;28;20052;-77
2022/04/19 06:49:29;;;;;;;8.05;2.83;;;9.70;74.00;;;;;;4185077;28;20053;-76
2022/04/19 06:51:32;;;;;;;3.50;3.20;;;9.80;75.10;;;;;;4195705;28;20061;-77
2022/04/19 06:53:37;;;;;;;4.53;3.00;;;9.80;72.90;;;;;;4177531;28;20115;-76
2022/04/19 06:55:39;;;;;;;4.85;2.97;;;9.90;72.10;;;;;;4176228;28;20880;-75
2022/04/19 06:57:41;;;;;;;3.72;2.88;;;10.00;72.10;;;;;;4179199;28;20057;-75
2022/04/19 06:59:43;;;;;;;8.13;2.85;;;10.10;70.60;;;;;;4179757;28;20061;-75
2022/04/19 07:01:44;;;;;;;6.32;2.60;;;10.20;70.40;;;;;;4177234;28;20061;-75
2022/04/19 07:03:46;;;;;;;3.60;2.85;;;10.30;70.00;;;;;;4190512;28;20053;-75
2022/04/19 07:05:48;;;;;;;6.57;2.30;;;10.50;69.00;;;;;;4191203;28;20783;-74
2022/04/19 07:07:50;;;;;;;3.38;2.40;;;10.60;68.50;;;;;;4171940;28;20081;-73
2022/04/19 07:09:51;;;;;;;2.45;2.22;;;10.70;68.80;;;;;;4194582;28;20068;-75
2022/04/19 07:11:53;;;;;;;3.63;2.55;;;10.80;69.10;;;;;;4181909;28;20042;-73
2022/04/19 07:13:56;;;;;;;2.65;2.38;;;11.00;69.40;;;;;;4181888;28;20884;-73
2022/04/19 07:15:57;;;;;;;2.58;2.38;;;11.10;69.80;;;;;;4172118;28;20092;-72
2022/04/19 07:17:59;;;;;;;4.47;2.20;;;11.20;69.10;;;;;;4185531;28;20175;-74
2022/04/19 07:27:03;;;;;;;2.55;2.35;;;11.30;65.70;;;;;;4196401;28;20056;-75
2022/04/19 07:29:05;;;;;;;4.63;2.47;;;11.40;65.10;;;;;;4180366;28;20124;-74
2022/04/19 07:31:07;;;;;;;2.03;1.90;;;11.50;66.20;;;;;;4192779;28;20092;-74
2022/04/19 07:33:09;;;;;;;4.30;2.70;;;11.60;66.40;;;;;;4198045;28;20693;-74
2022/04/19 07:35:10;;;;;;;6.32;3.15;;;11.70;65.10;;;;;;4192281;28;20896;-74
2022/04/19 07:37:12;;;;;;;3.60;2.70;;;11.70;63.70;;;;;;4197216;28;20931;-74
2022/04/19 07:39:14;;;;;;;5.70;3.65;;;11.80;62.70;;;;;;4192888;28;20088;-74
2022/04/19 07:41:17;;;;;;;4.35;2.70;;;11.90;61.10;;;;;;4193565;28;20092;-74
2022/04/19 07:45:32;;;;;;;5.53;3.30;;;12.00;62.10;;;;;;4190875;28;20056;-76
2022/04/19 07:47:33;;;;;;;10.40;3.38;;;12.00;61.70;;;;;;4191223;28;20801;-76
2022/04/19 07:49:36;;;;;;;4.32;3.00;;;12.10;62.50;;;;;;4187126;28;20053;-77
2022/04/19 07:51:38;;;;;;;5.60;2.83;;;12.10;62.60;;;;;;4190846;28;20064;-75
2022/04/19 07:53:40;;;;;;;8.40;3.92;;;12.20;61.90;;;;;;4188831;28;20057;-75
2022/04/19 07:55:42;;;;;;;6.43;3.92;;;12.30;59.30;;;;;;4188395;28;20080;-75
2022/04/19 07:57:44;;;;;;;5.93;3.78;;;12.30;59.40;;;;;;4187190;28;20065;-75
2022/04/19 07:59:46;;;;;;;7.20;4.15;;;12.20;59.40;;;;;;4190484;28;20061;-75
2022/04/19 08:01:48;;;;;;;4.70;3.17;;;12.20;59.90;;;;;;4185932;28;20131;-75
2022/04/19 08:03:50;;;;;;;5.30;3.72;;;12.20;60.00;;;;;;4191982;28;20516;-76
2022/04/19 08:05:53;;;;;;;4.10;3.40;;;12.30;60.20;;;;;;4191855;28;20057;-75
2022/04/19 08:07:58;;;;;;;6.55;3.42;;;12.30;60.20;;;;;;4192704;28;20064;-76
2022/04/19 08:10:00;;;;;;;5.40;3.25;;;12.30;60.50;;;;;;4187148;28;20905;-74
2022/04/19 08:12:02;;;;;;;4.97;3.95;;;12.40;57.90;;;;;;4189673;28;20391;-76
2022/04/19 08:14:04;;;;;;;6.38;3.80;;;12.40;58.30;;;;;;4194893;28;20057;-77
2022/04/19 08:16:06;;;;;;;5.38;3.50;;;12.50;58.70;;;;;;4193308;28;20086;-75
2022/04/19 08:18:11;;;;;;;4.45;3.03;;;12.40;58.30;;;;;;4189896;28;20089;-76
2022/04/19 08:20:13;;;;;;;4.65;3.70;;;12.50;59.80;;;;;;4189013;28;20057;-75
2022/04/19 08:22:16;;;;;;;6.22;3.80;;;12.60;59.10;;;;;;4187423;28;20053;-75
2022/04/19 08:24:18;;;;;;;7.40;4.13;;;12.70;58.40;;;;;;4191548;28;20092;-76
2022/04/19 08:26:20;;;;;;;5.68;3.67;;;12.90;58.00;;;;;;4195912;28;20061;-76
2022/04/19 08:28:22;;;;;;;5.25;3.90;;;13.00;58.60;;;;;;4197151;28;20743;-76
2022/04/19 08:30:24;;;;;;;5.10;3.40;;;13.10;56.30;;;;;;4191298;28;20061;-75
2022/04/19 08:32:25;;;;;;;5.20;3.22;;;13.00;56.40;;;;;;4194062;28;20122;-76
2022/04/19 08:34:27;;;;;;;7.00;3.70;;;13.10;55.70;;;;;;4192957;28;20067;-74
2022/04/19 08:36:29;;;;;;;5.00;3.25;;;13.10;56.40;;;;;;4196107;28;20082;-74
2022/04/19 08:38:31;;;;;;;4.72;3.60;;;13.10;57.40;;;;;;4190672;28;20895;-74
2022/04/19 08:40:33;;;;;;;8.10;3.40;;;13.10;56.10;;;;;;4191157;28;20665;-76
2022/04/19 08:42:38;;;;;;;3.30;3.00;;;13.20;55.50;;;;;;4189734;28;20099;-74
2022/04/19 08:44:39;;;;;;;3.47;3.08;;;13.20;56.00;;;;;;4187483;28;20122;-75
2022/04/19 08:46:42;;;;;;;7.65;4.05;;;13.30;55.90;;;;;;4193006;28;20100;-73
2022/04/19 08:48:45;;;;;;;5.60;3.45;;;13.40;55.80;;;;;;4190006;28;20049;-75
2022/04/19 08:50:49;;;;;;;6.97;3.72;;;13.50;54.60;;;;;;4189730;28;20068;-74
2022/04/19 08:57:29;;;;;;;5.93;4.07;;;13.40;53.70;;;;;;4190523;28;20053;-75
2022/04/19 08:57:35;;;;;;;5.60;3.50;;;13.50;54.90;;;;;;4197165;28;20130;-74
2022/04/19 08:59:36;;;;;;;4.47;2.95;;;13.60;54.10;;;;;;4191995;28;20057;-75
2022/04/19 09:01:39;;;;;;;3.33;3.03;;;13.70;54.00;;;;;;4187084;28;20057;-75
2022/04/19 09:03:41;;;;;;;5.43;3.75;;;13.70;53.30;;;;;;4184966;28;20073;-75
2022/04/19 09:05:51;;;;;;;5.95;3.10;;;13.70;53.30;;;;;;4193091;28;20041;-76
2022/04/19 09:07:58;;;;;;;3.97;3.00;;;13.80;53.20;;;;;;4176035;28;20135;-76
2022/04/19 09:10:00;;;;;;;5.35;2.95;;;13.80;54.10;;;;;;4186258;28;20068;-75
2022/04/19 09:12:12;;;;;;;3.53;2.85;;;13.90;53.60;;;;;;4185717;28;20790;-75
2022/04/19 09:14:14;;;;;;;3.33;2.55;;;14.00;54.00;;;;;;4185436;28;20225;-75
2022/04/19 09:16:22;;;;;;;3.17;2.40;;;14.10;53.40;;;;;;4187060;28;20882;-74
2022/04/19 09:18:29;;;;;;;2.63;2.13;;;14.30;51.00;;;;;;4185345;28;20093;-75
2022/04/19 09:20:31;;;;;;;2.85;2.35;;;14.30;49.10;;;;;;4192467;28;20172;-74
2022/04/19 09:22:33;;;;;;;3.00;2.40;;;14.10;49.70;;;;;;4192152;28;20057;-74
2022/04/19 09:24:35;;;;;;;2.60;2.30;;;14.20;52.10;;;;;;4194794;28;20056;-76
2022/04/19 09:26:59;;;;;;;6.10;2.70;;;14.10;49.10;;;;;;4194017;28;20818;-75
2022/04/19 09:29:22;;;;;;;3.70;1.95;;;14.00;48.40;;;;;;4186440;28;20057;-76
2022/04/19 09:31:30;;;;;;;3.85;2.30;;;13.90;48.60;;;;;;4181734;28;20064;-75
2022/04/19 09:33:32;;;;;;;6.18;2.72;;;13.80;49.40;;;;;;4182897;28;20058;-74
2022/04/19 09:35:39;;;;;;;3.75;2.63;;;13.90;50.60;;;;;;4184813;28;20061;-75
2022/04/19 09:37:47;;;;;;;23.67;4.15;;;14.20;49.90;;;;;;4186618;28;20058;-75
2022/04/19 09:39:53;;;;;;;3.78;1.90;;;14.30;50.20;;;;;;4185484;28;20053;-74
2022/04/19 09:42:01;;;;;;;2.72;2.00;;;14.20;49.30;;;;;;4191594;28;20626;-75
2022/04/19 09:44:07;;;;;;;5.75;2.20;;;14.20;48.00;;;;;;4167744;28;20057;-75
2022/04/19 09:46:14;;;;;;;2.30;2.10;;;14.10;48.50;;;;;;4194202;28;20068;-75
2022/04/19 09:48:24;;;;;;;6.38;2.00;;;14.20;48.80;;;;;;4194657;28;20148;-75
2022/04/19 09:50:26;;;;;;;9.75;2.25;;;14.30;48.10;;;;;;4189829;28;20057;-74
2022/04/19 09:52:28;;;;;;;4.38;2.13;;;14.30;47.50;;;;;;4188343;28;20056;-75
2022/04/19 09:54:30;;;;;;;1.88;1.70;;;14.40;48.70;;;;;;4189656;28;20065;-74
2022/04/19 09:56:37;;;;;;;4.28;2.38;;;14.40;49.70;;;;;;4188265;28;20053;-75
2022/04/19 09:58:55;;;;;;;3.72;2.97;;;14.50;49.60;;;;;;4183648;28;20123;-75
2022/04/19 10:00:57;;;;;;;4.93;3.45;;;14.50;50.50;;;;;;4176739;28;20143;-74
2022/04/19 10:10:07;;;;;;;5.15;1.70;;;14.50;47.00;;;;;;4191971;28;20045;-77
2022/04/19 10:12:12;;;;;;;2.53;1.88;;;14.40;44.70;;;;;;4183226;28;20122;-77
2022/04/19 10:14:16;;;;;;;5.88;2.58;;;14.40;45.30;;;;;;4187742;28;20152;-75
2022/04/19 10:16:17;;;;;;;5.05;2.28;;;14.30;45.40;;;;;;4172705;28;20057;-74
2022/04/19 10:18:19;;;;;;;2.80;2.13;;;14.30;47.00;;;;;;4186899;28;20068;-77
2022/04/19 10:20:32;;;;;;;4.10;2.75;;;14.40;46.50;;;;;;4169369;28;20049;-77
2022/04/19 10:22:47;;;;;;;2.40;1.70;;;14.50;47.10;;;;;;4167903;28;20062;-75
2022/04/19 10:24:52;;;;;;;4.55;2.17;;;14.50;47.10;;;;;;4176535;28;20200;-75
2022/04/19 10:26:53;;;;;;;1.85;1.75;;;14.60;46.20;;;;;;4187356;28;20134;-75
2022/04/19 10:28:58;;;;;;;2.60;2.03;;;14.70;47.40;;;;;;4182896;28;20061;-76
2022/04/19 10:31:00;;;;;;;2.67;2.03;;;14.70;45.10;;;;;;4184289;28;20104;-76
2022/04/19 10:33:41;;;;;;;6.10;2.28;;;14.60;46.90;;;;;;4182017;28;20175;-76
2022/04/19 10:36:18;;;;;;;2.50;1.95;;;14.90;48.50;;;;;;4183891;28;20095;-75
2022/04/19 10:38:20;;;;;;;2.17;1.98;;;15.00;44.40;;;;;;4187977;28;20064;-76
2022/04/19 10:40:23;;;;;;;2.95;1.70;;;15.10;45.90;;;;;;4186753;28;20123;-74
2022/04/19 10:42:37;;;;;;;2.28;2.05;;;15.00;45.00;;;;;;4182778;28;20045;-76
2022/04/19 10:44:43;;;;;;;3.13;1.85;;;15.00;44.50;;;;;;4190874;28;20175;-75
2022/04/19 10:46:45;;;;;;;4.15;2.20;;;14.90;45.10;;;;;;4186208;28;20055;-77
2022/04/19 10:49:25;;;;;;;2.15;1.95;;;14.80;45.00;;;;;;4189964;28;20061;-73
2022/04/19 10:51:27;;;;;;;2.15;1.95;;;14.80;45.60;;;;;;4188889;28;20061;-76
2022/04/19 10:53:33;;;;;;;2.72;2.42;;;14.80;46.50;;;;;;4194447;28;20876;-77
2022/04/19 10:55:57;;;;;;;3.88;2.60;;;15.00;44.90;;;;;;4181330;28;20057;-75
2022/04/19 10:58:12;;;;;;;2.28;2.08;;;15.00;46.50;;;;;;4186562;28;20057;-74
2022/04/19 11:00:35;;;;;;;3.25;2.65;;;15.10;46.50;;;;;;4183259;28;20054;-77
2022/04/19 11:03:07;;;;;;;2.35;1.98;;;15.10;46.40;;;;;;4169242;28;20275;-77
2022/04/19 11:05:35;;;;;;;2.63;2.20;;;15.10;46.10;;;;;;4184057;28;20639;-76
2022/04/19 11:07:43;;;;;;;2.10;1.90;;;15.20;46.80;;;;;;4182656;28;20616;-76
2022/04/19 11:10:01;;;;;;;3.92;2.10;;;15.30;44.80;;;;;;4185809;28;20866;-76
2022/04/19 11:12:10;;;;;;;3.63;2.38;;;15.20;45.40;;;;;;4186073;28;20069;-77
2022/04/19 11:14:20;;;;;;;3.92;2.00;;;15.00;44.10;;;;;;4173192;28;20054;-77
2022/04/19 11:16:37;;;;;;;2.00;1.83;;;14.90;43.60;;;;;;4180103;28;20750;-76
2022/04/19 11:18:40;;;;;;;3.35;3.05;;;14.90;45.50;;;;;;4174596;28;20066;-76
2022/04/19 11:21:07;;;;;;;2.65;2.38;;;15.10;44.00;;;;;;4193451;28;20049;-77
2022/04/19 11:23:20;;;;;;;2.33;2.10;;;15.20;43.70;;;;;;4179920;28;20099;-77
2022/04/19 11:25:39;;;;;;;3.75;2.50;;;15.30;44.50;;;;;;4191342;28;20100;-76
2022/04/19 11:27:53;;;;;;;3.58;2.88;;;15.30;44.60;;;;;;4192938;28;20126;-77
2022/04/19 11:29:55;;;;;;;2.50;2.28;;;15.40;45.50;;;;;;4179133;28;20053;-77